Time;durP1;ratioP1;P1;durP2;ratioP2;P2;SDS_P1;SDS_P2;PMS_P1;PMS_P2;Temp;Humidity;BMP_temperature;BMP_pressure;BME280_temperature;BME280_humidity;BME280_pressure;Samples;Min_cycle;Max_cycle;Signal;HPM_P1;HPM_P2
2024/02/06 00:00:04;;;;;;;;;;;;;;;;;;344251;28;1094;-79
2024/02/06 00:00:14;;;;;;;;;;;;;;;;;;342854;28;1342;-79
2024/02/06 00:00:24;;;;;;;;;;;;;;;;;;343440;28;1034;-80
2024/02/06 00:00:34;;;;;;;;;;;;;;;;;;344287;28;946;-80
2024/02/06 00:00:45;;;;;;;;;;;;;;;;;;342938;28;1165;-79
2024/02/06 00:00:55;;;;;;;;;;;;;;;;;;342957;28;994;-79
2024/02/06 00:01:08;;;;;;;;;;;;;;;;;;340296;29;1312;-80
2024/02/06 00:01:18;;;;;;;;;;;;;;;;;;340412;29;1229;-79
2024/02/06 00:01:28;;;;;;;;;;;;;;;;;;344024;28;1201;-79
2024/02/06 00:01:39;;;;;;;;;;;;;;;;;;345376;28;1463;-79
2024/02/06 00:01:49;;;;;;;;;;;;;;;;;;345720;28;1165;-79
2024/02/06 00:02:01;;;;;;;;;;;;;;;;;;344177;28;1185;-79
2024/02/06 00:02:11;;;;;;;;;;;;;;;;;;344370;28;1223;-79
2024/02/06 00:02:22;;;;;;;;;;;;;;;;;;344432;28;843;-79
2024/02/06 00:02:33;;;;;;;;;;;;;;;;;;344301;28;1481;-80
2024/02/06 00:02:43;;;;;;;;;;;;;;;;;;341630;28;1037;-79
2024/02/06 00:02:54;;;;;;;;;;;;;;;;;;341709;29;970;-80
2024/02/06 00:03:04;;;;;;;;;;;;;;;;;;344198;28;1195;-79
2024/02/06 00:03:14;;;;;;;;;;;;;;;;;;343002;28;1009;-79
2024/02/06 00:03:24;;;;;;;;;;;;;;;;;;342910;28;994;-79
2024/02/06 00:03:34;;;;;;;;;;;;;;;;;;343022;28;962;-79
2024/02/06 00:03:45;;;;;;;;;;;;;;;;;;342843;28;1556;-79
2024/02/06 00:03:55;;;;;;;;;;;;;;;;;;344296;28;1238;-79
2024/02/06 00:04:05;;;;;;;;;;;;;;;;;;341731;29;998;-79
2024/02/06 00:04:16;;;;;;;;;;;;;;;;;;341721;29;816;-79
2024/02/06 00:04:26;;;;;;;;;;;;;;;;;;343018;28;1163;-79
2024/02/06 00:04:36;;;;;;;;;;;;;;;;;;343925;28;1214;-79
2024/02/06 00:04:46;;;;;;;;;;;;;;;;;;344303;28;990;-80
2024/02/06 00:04:57;;;;;;;;;;;;;;;;;;345679;28;1033;-80
2024/02/06 00:05:07;;;;;;;;;;;;;;;;;;344340;28;906;-79
2024/02/06 00:05:17;;;;;;;;;;;;;;;;;;342882;28;1203;-79
2024/02/06 00:05:27;;;;;;;;;;;;;;;;;;344380;28;994;-80
2024/02/06 00:05:37;;;;;;;;;;;;;;;;;;344346;28;1441;-79
2024/02/06 00:05:48;;;;;;;;;;;;;;;;;;342950;28;1009;-80
2024/02/06 00:05:58;;;;;;;;;;;;;;;;;;341640;29;1234;-80
2024/02/06 00:06:08;;;;;;;;;;;;;;;;;;341718;29;1034;-80
2024/02/06 00:06:18;;;;;;;;;;;;;;;;;;344350;28;1041;-79
2024/02/06 00:06:28;;;;;;;;;;;;;;;;;;341544;28;1488;-79
2024/02/06 00:06:39;;;;;;;;;;;;;;;;;;343017;28;946;-79
2024/02/06 00:06:49;;;;;;;;;;;;;;;;;;342999;28;1026;-80
2024/02/06 00:06:59;;;;;;;;;;;;;;;;;;344215;28;1170;-80
2024/02/06 00:07:10;;;;;;;;;;;;;;;;;;344305;28;1321;-79
2024/02/06 00:07:20;;;;;;;;;;;;;;;;;;344313;28;1898;-80
2024/02/06 00:07:30;;;;;;;;;;;;;;;;;;340294;29;1301;-79
2024/02/06 00:07:40;;;;;;;;;;;;;;;;;;342937;28;1218;-79
2024/02/06 00:07:50;;;;;;;;;;;;;;;;;;344291;28;1193;-79
2024/02/06 00:08:01;;;;;;;;;;;;;;;;;;345680;28;966;-79
2024/02/06 00:08:11;;;;;;;;;;;;;;;;;;345773;28;1033;-80
2024/02/06 00:08:21;;;;;;;;;;;;;;;;;;346105;28;1219;-79
2024/02/06 00:08:34;;;;;;;;;;;;;;;;;;346098;28;1204;-79
2024/02/06 00:08:44;;;;;;;;;;;;;;;;;;346993;28;1006;-79
2024/02/06 00:08:54;;;;;;;;;;;;;;;;;;345689;28;1002;-80
2024/02/06 00:09:05;;;;;;;;;;;;;;;;;;345718;28;974;-79
2024/02/06 00:09:15;;;;;;;;;;;;;;;;;;345709;28;1005;-79
2024/02/06 00:09:25;;;;;;;;;;;;;;;;;;345725;28;898;-79
2024/02/06 00:09:35;;;;;;;;;;;;;;;;;;345778;28;926;-80
2024/02/06 00:09:46;;;;;;;;;;;;;;;;;;344389;28;1347;-79
2024/02/06 00:09:56;;;;;;;;;;;;;;;;;;344288;28;1189;-79
2024/02/06 00:10:06;;;;;;;;;;;;;;;;;;344257;28;990;-79
2024/02/06 00:10:16;;;;;;;;;;;;;;;;;;343007;28;975;-79
2024/02/06 00:10:27;;;;;;;;;;;;;;;;;;343003;28;1077;-79
2024/02/06 00:10:37;;;;;;;;;;;;;;;;;;343007;28;1010;-79
2024/02/06 00:10:47;;;;;;;;;;;;;;;;;;341690;29;1049;-80
2024/02/06 00:10:57;;;;;;;;;;;;;;;;;;341714;29;801;-79
2024/02/06 00:11:07;;;;;;;;;;;;;;;;;;341624;29;962;-79
2024/02/06 00:11:18;;;;;;;;;;;;;;;;;;344265;28;1193;-79
2024/02/06 00:11:28;;;;;;;;;;;;;;;;;;344253;28;982;-79
2024/02/06 00:11:38;;;;;;;;;;;;;;;;;;345668;28;1300;-79
2024/02/06 00:11:48;;;;;;;;;;;;;;;;;;345640;28;1002;-79
2024/02/06 00:11:59;;;;;;;;;;;;;;;;;;344387;28;1342;-80
2024/02/06 00:12:10;;;;;;;;;;;;;;;;;;341580;28;1013;-80
2024/02/06 00:12:20;;;;;;;;;;;;;;;;;;344348;28;922;-80
2024/02/06 00:12:30;;;;;;;;;;;;;;;;;;342970;28;1242;-79
2024/02/06 00:12:40;;;;;;;;;;;;;;;;;;342964;28;1193;-80
2024/02/06 00:12:51;;;;;;;;;;;;;;;;;;345653;28;1325;-79
2024/02/06 00:13:01;;;;;;;;;;;;;;;;;;345737;28;978;-80
2024/02/06 00:13:11;;;;;;;;;;;;;;;;;;345745;28;828;-79
2024/02/06 00:13:21;;;;;;;;;;;;;;;;;;345335;28;1015;-79
2024/02/06 00:13:32;;;;;;;;;;;;;;;;;;342793;28;1347;-79
2024/02/06 00:13:42;;;;;;;;;;;;;;;;;;343075;28;1065;-80
2024/02/06 00:13:52;;;;;;;;;;;;;;;;;;342976;28;820;-79
2024/02/06 00:14:03;;;;;;;;;;;;;;;;;;341666;29;1002;-79
2024/02/06 00:14:13;;;;;;;;;;;;;;;;;;341631;29;1038;-79
2024/02/06 00:14:23;;;;;;;;;;;;;;;;;;341736;29;793;-79
2024/02/06 00:14:33;;;;;;;;;;;;;;;;;;343074;28;1065;-80
2024/02/06 00:14:43;;;;;;;;;;;;;;;;;;345674;28;974;-80
2024/02/06 00:14:53;;;;;;;;;;;;;;;;;;345635;28;1022;-79
2024/02/06 00:15:04;;;;;;;;;;;;;;;;;;345413;28;1319;-79
2024/02/06 00:15:14;;;;;;;;;;;;;;;;;;345689;28;1262;-79
2024/02/06 00:15:24;;;;;;;;;;;;;;;;;;342762;28;1298;-79
2024/02/06 00:15:35;;;;;;;;;;;;;;;;;;342968;28;1149;-79
2024/02/06 00:15:45;;;;;;;;;;;;;;;;;;342928;28;1364;-79
2024/02/06 00:15:56;;;;;;;;;;;;;;;;;;342877;28;1476;-80
2024/02/06 00:16:12;;;;;;;;;;;;;;;;;;343013;28;994;-79
2024/02/06 00:16:23;;;;;;;;;;;;;;;;;;342870;28;1176;-79
2024/02/06 00:16:33;;;;;;;;;;;;;;;;;;342851;28;1276;-79
2024/02/06 00:16:45;;;;;;;;;;;;;;;;;;343364;28;1441;-79
2024/02/06 00:16:55;;;;;;;;;;;;;;;;;;344271;28;1318;-79
2024/02/06 00:17:06;;;;;;;;;;;;;;;;;;345562;28;1509;-80
2024/02/06 00:17:16;;;;;;;;;;;;;;;;;;345719;28;1029;-80
2024/02/06 00:17:26;;;;;;;;;;;;;;;;;;345600;28;1347;-80
2024/02/06 00:17:36;;;;;;;;;;;;;;;;;;342897;28;1413;-79
2024/02/06 00:17:46;;;;;;;;;;;;;;;;;;344330;28;1013;-79
2024/02/06 00:17:57;;;;;;;;;;;;;;;;;;345705;28;963;-79
2024/02/06 00:18:07;;;;;;;;;;;;;;;;;;346816;28;1308;-79
2024/02/06 00:18:17;;;;;;;;;;;;;;;;;;345060;28;1033;-79
2024/02/06 00:18:27;;;;;;;;;;;;;;;;;;345299;28;1796;-79
2024/02/06 00:18:38;;;;;;;;;;;;;;;;;;342729;28;1356;-80
2024/02/06 00:18:48;;;;;;;;;;;;;;;;;;342729;28;1247;-80
2024/02/06 00:18:58;;;;;;;;;;;;;;;;;;345569;28;1264;-80
2024/02/06 00:19:08;;;;;;;;;;;;;;;;;;342824;28;1307;-79
2024/02/06 00:19:18;;;;;;;;;;;;;;;;;;343124;28;816;-79
2024/02/06 00:19:28;;;;;;;;;;;;;;;;;;343067;28;966;-79
2024/02/06 00:19:39;;;;;;;;;;;;;;;;;;342965;28;1044;-79
2024/02/06 00:19:49;;;;;;;;;;;;;;;;;;344487;28;975;-79
2024/02/06 00:20:00;;;;;;;;;;;;;;;;;;345799;28;1045;-79
2024/02/06 00:20:10;;;;;;;;;;;;;;;;;;344735;28;1521;-79
2024/02/06 00:20:21;;;;;;;;;;;;;;;;;;345743;28;1025;-80
2024/02/06 00:20:31;;;;;;;;;;;;;;;;;;342833;28;1169;-79
2024/02/06 00:20:41;;;;;;;;;;;;;;;;;;341583;29;1633;-80
2024/02/06 00:20:51;;;;;;;;;;;;;;;;;;343083;28;997;-79
2024/02/06 00:21:02;;;;;;;;;;;;;;;;;;343073;28;954;-79
2024/02/06 00:21:12;;;;;;;;;;;;;;;;;;342787;28;1258;-79
2024/02/06 00:21:23;;;;;;;;;;;;;;;;;;344178;28;1317;-79
2024/02/06 00:21:33;;;;;;;;;;;;;;;;;;344318;28;970;-79
2024/02/06 00:21:43;;;;;;;;;;;;;;;;;;344348;28;894;-79
2024/02/06 00:21:53;;;;;;;;;;;;;;;;;;345633;28;1439;-79
2024/02/06 00:22:04;;;;;;;;;;;;;;;;;;344234;28;1374;-79
2024/02/06 00:22:14;;;;;;;;;;;;;;;;;;343011;28;902;-79
2024/02/06 00:22:24;;;;;;;;;;;;;;;;;;342911;28;1296;-79
2024/02/06 00:22:34;;;;;;;;;;;;;;;;;;342997;28;1355;-79
2024/02/06 00:22:45;;;;;;;;;;;;;;;;;;344170;28;1268;-80
2024/02/06 00:22:55;;;;;;;;;;;;;;;;;;344365;28;792;-79
2024/02/06 00:23:05;;;;;;;;;;;;;;;;;;344270;28;1022;-79
2024/02/06 00:23:16;;;;;;;;;;;;;;;;;;341719;29;1010;-79
2024/02/06 00:23:26;;;;;;;;;;;;;;;;;;344317;28;869;-79
2024/02/06 00:23:36;;;;;;;;;;;;;;;;;;344412;28;978;-79
2024/02/06 00:23:46;;;;;;;;;;;;;;;;;;344257;28;1196;-79
2024/02/06 00:23:56;;;;;;;;;;;;;;;;;;344370;28;1057;-79
2024/02/06 00:24:07;;;;;;;;;;;;;;;;;;342851;28;1295;-80
2024/02/06 00:24:17;;;;;;;;;;;;;;;;;;342917;28;959;-79
2024/02/06 00:24:27;;;;;;;;;;;;;;;;;;345568;28;978;-79
2024/02/06 00:24:37;;;;;;;;;;;;;;;;;;345618;28;1048;-79
2024/02/06 00:24:51;;;;;;;;;;;;;;;;;;344216;28;1363;-79
2024/02/06 00:25:01;;;;;;;;;;;;;;;;;;344309;28;978;-79
2024/02/06 00:25:11;;;;;;;;;;;;;;;;;;344398;28;777;-79
2024/02/06 00:25:21;;;;;;;;;;;;;;;;;;345733;28;850;-79
2024/02/06 00:25:31;;;;;;;;;;;;;;;;;;344312;28;1334;-79
2024/02/06 00:25:42;;;;;;;;;;;;;;;;;;341642;29;1167;-79
2024/02/06 00:25:53;;;;;;;;;;;;;;;;;;342841;28;1323;-79
2024/02/06 00:26:03;;;;;;;;;;;;;;;;;;342976;28;1451;-80
2024/02/06 00:26:14;;;;;;;;;;;;;;;;;;344317;28;990;-79
2024/02/06 00:26:24;;;;;;;;;;;;;;;;;;344249;28;1271;-79
2024/02/06 00:26:34;;;;;;;;;;;;;;;;;;341497;29;1079;-80
2024/02/06 00:26:44;;;;;;;;;;;;;;;;;;342867;28;1571;-79
2024/02/06 00:26:55;;;;;;;;;;;;;;;;;;342903;28;987;-79
2024/02/06 00:27:06;;;;;;;;;;;;;;;;;;342869;28;1166;-79
2024/02/06 00:27:16;;;;;;;;;;;;;;;;;;342960;28;1964;-80
2024/02/06 00:27:26;;;;;;;;;;;;;;;;;;342770;28;1435;-79
2024/02/06 00:27:36;;;;;;;;;;;;;;;;;;344040;28;1244;-80
2024/02/06 00:27:47;;;;;;;;;;;;;;;;;;342970;28;1181;-80
2024/02/06 00:27:57;;;;;;;;;;;;;;;;;;342316;28;1283;-79
2024/02/06 00:28:07;;;;;;;;;;;;;;;;;;341668;29;927;-79
2024/02/06 00:28:17;;;;;;;;;;;;;;;;;;341637;29;1034;-79
2024/02/06 00:28:27;;;;;;;;;;;;;;;;;;341400;29;1545;-79
2024/02/06 00:28:37;;;;;;;;;;;;;;;;;;341616;29;958;-79
2024/02/06 00:28:48;;;;;;;;;;;;;;;;;;344288;28;1292;-79
2024/02/06 00:28:58;;;;;;;;;;;;;;;;;;344311;28;1282;-79
2024/02/06 00:29:08;;;;;;;;;;;;;;;;;;344396;28;819;-79
2024/02/06 00:29:18;;;;;;;;;;;;;;;;;;342924;28;1006;-79
2024/02/06 00:29:29;;;;;;;;;;;;;;;;;;341570;29;1438;-79
2024/02/06 00:29:39;;;;;;;;;;;;;;;;;;345429;28;1336;-79
2024/02/06 00:29:51;;;;;;;;;;;;;;;;;;344265;28;966;-79
2024/02/06 00:30:02;;;;;;;;;;;;;;;;;;344269;28;1174;-79
2024/02/06 00:30:12;;;;;;;;;;;;;;;;;;342966;28;1357;-80
2024/02/06 00:30:23;;;;;;;;;;;;;;;;;;340301;29;1473;-79
2024/02/06 00:30:33;;;;;;;;;;;;;;;;;;341233;29;1547;-79
2024/02/06 00:30:43;;;;;;;;;;;;;;;;;;341666;29;1069;-80
2024/02/06 00:30:53;;;;;;;;;;;;;;;;;;343093;28;939;-79
2024/02/06 00:31:04;;;;;;;;;;;;;;;;;;342902;28;1162;-79
2024/02/06 00:31:14;;;;;;;;;;;;;;;;;;342845;28;828;-79
2024/02/06 00:31:24;;;;;;;;;;;;;;;;;;345610;28;1326;-79
2024/02/06 00:31:34;;;;;;;;;;;;;;;;;;345654;28;1261;-79
2024/02/06 00:31:45;;;;;;;;;;;;;;;;;;345669;28;1018;-79
2024/02/06 00:31:55;;;;;;;;;;;;;;;;;;345777;28;871;-80
2024/02/06 00:32:05;;;;;;;;;;;;;;;;;;345600;28;1017;-79
2024/02/06 00:32:16;;;;;;;;;;;;;;;;;;345692;28;830;-80
2024/02/06 00:32:26;;;;;;;;;;;;;;;;;;344371;28;1037;-79
2024/02/06 00:32:36;;;;;;;;;;;;;;;;;;342929;28;982;-79
2024/02/06 00:32:46;;;;;;;;;;;;;;;;;;342897;28;784;-79
2024/02/06 00:32:57;;;;;;;;;;;;;;;;;;341589;28;1180;-79
2024/02/06 00:33:07;;;;;;;;;;;;;;;;;;343102;28;828;-79
2024/02/06 00:33:18;;;;;;;;;;;;;;;;;;342940;28;951;-79
2024/02/06 00:33:28;;;;;;;;;;;;;;;;;;342989;28;1033;-80
2024/02/06 00:33:38;;;;;;;;;;;;;;;;;;343056;28;1018;-79
2024/02/06 00:33:48;;;;;;;;;;;;;;;;;;342848;28;958;-79
2024/02/06 00:33:59;;;;;;;;;;;;;;;;;;344341;28;1014;-79
2024/02/06 00:34:09;;;;;;;;;;;;;;;;;;342963;28;1001;-79
2024/02/06 00:34:19;;;;;;;;;;;;;;;;;;341628;29;1056;-80
2024/02/06 00:34:29;;;;;;;;;;;;;;;;;;342879;28;966;-79
2024/02/06 00:34:40;;;;;;;;;;;;;;;;;;345508;28;1017;-79
2024/02/06 00:34:50;;;;;;;;;;;;;;;;;;345635;28;1053;-80
2024/02/06 00:35:00;;;;;;;;;;;;;;;;;;345553;28;962;-79
2024/02/06 00:35:11;;;;;;;;;;;;;;;;;;344342;28;1187;-79
2024/02/06 00:35:22;;;;;;;;;;;;;;;;;;342838;28;1163;-79
2024/02/06 00:35:32;;;;;;;;;;;;;;;;;;340247;29;1312;-79
2024/02/06 00:35:42;;;;;;;;;;;;;;;;;;342881;28;971;-79
2024/02/06 00:35:52;;;;;;;;;;;;;;;;;;344330;28;1003;-80
2024/02/06 00:36:03;;;;;;;;;;;;;;;;;;341977;28;1182;-79
2024/02/06 00:36:13;;;;;;;;;;;;;;;;;;343040;28;875;-79
2024/02/06 00:36:23;;;;;;;;;;;;;;;;;;342843;28;1185;-79
2024/02/06 00:36:34;;;;;;;;;;;;;;;;;;341600;29;1178;-80
2024/02/06 00:36:44;;;;;;;;;;;;;;;;;;344304;28;1386;-80
2024/02/06 00:36:54;;;;;;;;;;;;;;;;;;344347;28;982;-79
2024/02/06 00:37:04;;;;;;;;;;;;;;;;;;344233;28;1184;-79
2024/02/06 00:37:17;;;;;;;;;;;;;;;;;;344367;28;863;-80
2024/02/06 00:37:31;;;;;;;;;;;;;;;;;;341494;29;1109;-79
2024/02/06 00:37:44;;;;;;;;;;;;;;;;;;341320;29;1463;-80
2024/02/06 00:37:55;;;;;;;;;;;;;;;;;;341736;29;995;-79
2024/02/06 00:38:05;;;;;;;;;;;;;;;;;;341540;28;963;-80
2024/02/06 00:38:15;;;;;;;;;;;;;;;;;;341758;29;942;-79
2024/02/06 00:38:25;;;;;;;;;;;;;;;;;;341107;29;1454;-79
2024/02/06 00:38:36;;;;;;;;;;;;;;;;;;344313;28;1042;-79
2024/02/06 00:38:46;;;;;;;;;;;;;;;;;;344275;28;923;-80
2024/02/06 00:39:00;;;;;;;;;;;;;;;;;;344130;28;1534;-79
2024/02/06 00:39:10;;;;;;;;;;;;;;;;;;344203;28;1447;-80
2024/02/06 00:39:20;;;;;;;;;;;;;;;;;;344141;28;1212;-79
2024/02/06 00:39:31;;;;;;;;;;;;;;;;;;342864;28;1083;-79
2024/02/06 00:39:41;;;;;;;;;;;;;;;;;;342967;28;1054;-80
2024/02/06 00:39:52;;;;;;;;;;;;;;;;;;342962;28;895;-80
2024/02/06 00:40:02;;;;;;;;;;;;;;;;;;344228;28;1208;-79
2024/02/06 00:40:12;;;;;;;;;;;;;;;;;;344185;28;1213;-80
2024/02/06 00:40:23;;;;;;;;;;;;;;;;;;343878;28;1352;-79
2024/02/06 00:40:33;;;;;;;;;;;;;;;;;;344257;28;967;-80
2024/02/06 00:40:43;;;;;;;;;;;;;;;;;;344379;28;832;-80
2024/02/06 00:40:53;;;;;;;;;;;;;;;;;;344166;28;998;-79
2024/02/06 00:41:03;;;;;;;;;;;;;;;;;;344373;28;1014;-79
2024/02/06 00:41:17;;;;;;;;;;;;;;;;;;342966;28;990;-79
2024/02/06 00:41:27;;;;;;;;;;;;;;;;;;345154;28;1002;-79
2024/02/06 00:41:37;;;;;;;;;;;;;;;;;;345353;28;1321;-79
2024/02/06 00:41:47;;;;;;;;;;;;;;;;;;344277;28;1251;-79
2024/02/06 00:41:58;;;;;;;;;;;;;;;;;;343997;28;1305;-80
2024/02/06 00:42:09;;;;;;;;;;;;;;;;;;344311;28;1030;-79
2024/02/06 00:42:20;;;;;;;;;;;;;;;;;;345602;28;1032;-79
2024/02/06 00:42:30;;;;;;;;;;;;;;;;;;344902;28;1229;-80
2024/02/06 00:42:41;;;;;;;;;;;;;;;;;;344142;28;1313;-79
2024/02/06 00:42:51;;;;;;;;;;;;;;;;;;344371;28;1002;-79
2024/02/06 00:43:02;;;;;;;;;;;;;;;;;;344324;28;1038;-79
2024/02/06 00:43:12;;;;;;;;;;;;;;;;;;341686;28;1014;-79
2024/02/06 00:43:23;;;;;;;;;;;;;;;;;;341424;29;1392;-79
2024/02/06 00:43:33;;;;;;;;;;;;;;;;;;342883;28;1379;-79
2024/02/06 00:43:43;;;;;;;;;;;;;;;;;;345453;28;1476;-79
2024/02/06 00:43:53;;;;;;;;;;;;;;;;;;345787;28;1485;-79
2024/02/06 00:44:04;;;;;;;;;;;;;;;;;;342844;28;1336;-79
2024/02/06 00:44:14;;;;;;;;;;;;;;;;;;343528;28;1065;-80
2024/02/06 00:44:24;;;;;;;;;;;;;;;;;;341537;29;1086;-79
2024/02/06 00:44:34;;;;;;;;;;;;;;;;;;340400;29;1010;-80
2024/02/06 00:44:45;;;;;;;;;;;;;;;;;;340334;29;1021;-79
2024/02/06 00:44:55;;;;;;;;;;;;;;;;;;340419;29;848;-79
2024/02/06 00:45:05;;;;;;;;;;;;;;;;;;342892;28;978;-79
2024/02/06 00:45:19;;;;;;;;;;;;;;;;;;341676;29;924;-79
2024/02/06 00:45:29;;;;;;;;;;;;;;;;;;342718;28;1410;-79
2024/02/06 00:45:39;;;;;;;;;;;;;;;;;;343038;28;812;-79
2024/02/06 00:45:52;;;;;;;;;;;;;;;;;;342838;28;966;-80
2024/02/06 00:46:02;;;;;;;;;;;;;;;;;;342824;28;1355;-79
2024/02/06 00:46:12;;;;;;;;;;;;;;;;;;342954;28;954;-79
2024/02/06 00:46:23;;;;;;;;;;;;;;;;;;343013;28;978;-79
2024/02/06 00:46:33;;;;;;;;;;;;;;;;;;343000;28;997;-80
2024/02/06 00:46:43;;;;;;;;;;;;;;;;;;341590;28;1049;-80
2024/02/06 00:46:53;;;;;;;;;;;;;;;;;;344272;28;844;-80
2024/02/06 00:47:03;;;;;;;;;;;;;;;;;;342933;28;1197;-80
2024/02/06 00:47:16;;;;;;;;;;;;;;;;;;344113;28;1890;-79
2024/02/06 00:47:26;;;;;;;;;;;;;;;;;;344206;28;1181;-79
2024/02/06 00:47:36;;;;;;;;;;;;;;;;;;340317;28;950;-80
2024/02/06 00:47:51;;;;;;;;;;;;;;;;;;341593;29;1177;-79
2024/02/06 00:48:01;;;;;;;;;;;;;;;;;;341637;29;982;-79
2024/02/06 00:48:11;;;;;;;;;;;;;;;;;;341596;28;990;-80
2024/02/06 00:48:22;;;;;;;;;;;;;;;;;;341692;29;962;-79
2024/02/06 00:48:32;;;;;;;;;;;;;;;;;;344093;28;1222;-79
2024/02/06 00:48:42;;;;;;;;;;;;;;;;;;341472;28;939;-79
2024/02/06 00:48:53;;;;;;;;;;;;;;;;;;341664;29;1026;-79
2024/02/06 00:49:03;;;;;;;;;;;;;;;;;;344282;28;1162;-80
2024/02/06 00:49:14;;;;;;;;;;;;;;;;;;344228;28;1037;-80
2024/02/06 00:49:24;;;;;;;;;;;;;;;;;;342857;28;1375;-79
2024/02/06 00:49:35;;;;;;;;;;;;;;;;;;344211;28;1236;-79
2024/02/06 00:49:45;;;;;;;;;;;;;;;;;;344379;28;990;-79
2024/02/06 00:49:55;;;;;;;;;;;;;;;;;;344242;28;978;-79
2024/02/06 00:50:06;;;;;;;;;;;;;;;;;;341569;29;1190;-79
2024/02/06 00:50:16;;;;;;;;;;;;;;;;;;341601;29;950;-79
2024/02/06 00:50:27;;;;;;;;;;;;;;;;;;342982;28;910;-80
2024/02/06 00:50:37;;;;;;;;;;;;;;;;;;344217;28;1201;-79
2024/02/06 00:50:47;;;;;;;;;;;;;;;;;;344247;28;994;-79
2024/02/06 00:50:57;;;;;;;;;;;;;;;;;;344271;28;951;-79
2024/02/06 00:51:08;;;;;;;;;;;;;;;;;;344267;28;1413;-79
2024/02/06 00:51:19;;;;;;;;;;;;;;;;;;343326;28;1221;-79
2024/02/06 00:51:29;;;;;;;;;;;;;;;;;;341578;28;1287;-79
2024/02/06 00:51:39;;;;;;;;;;;;;;;;;;341712;29;990;-79
2024/02/06 00:51:50;;;;;;;;;;;;;;;;;;341624;29;1062;-79
2024/02/06 00:52:00;;;;;;;;;;;;;;;;;;342920;28;943;-79
2024/02/06 00:52:10;;;;;;;;;;;;;;;;;;341590;29;1279;-79
2024/02/06 00:52:21;;;;;;;;;;;;;;;;;;341563;29;1095;-79
2024/02/06 00:52:31;;;;;;;;;;;;;;;;;;344084;28;1521;-79
2024/02/06 00:52:42;;;;;;;;;;;;;;;;;;344266;28;1198;-79
2024/02/06 00:52:52;;;;;;;;;;;;;;;;;;344421;28;994;-79
2024/02/06 00:53:02;;;;;;;;;;;;;;;;;;344305;28;1057;-79
2024/02/06 00:53:12;;;;;;;;;;;;;;;;;;344277;28;1048;-79
2024/02/06 00:53:22;;;;;;;;;;;;;;;;;;344334;28;1077;-79
2024/02/06 00:53:33;;;;;;;;;;;;;;;;;;344283;28;967;-79
2024/02/06 00:53:43;;;;;;;;;;;;;;;;;;344351;28;978;-80
2024/02/06 00:53:53;;;;;;;;;;;;;;;;;;345618;28;939;-79
2024/02/06 00:54:03;;;;;;;;;;;;;;;;;;345371;28;978;-79
2024/02/06 00:54:13;;;;;;;;;;;;;;;;;;344219;28;1233;-79
2024/02/06 00:54:24;;;;;;;;;;;;;;;;;;344203;28;1393;-79
2024/02/06 00:54:34;;;;;;;;;;;;;;;;;;344220;28;1209;-80
2024/02/06 00:54:44;;;;;;;;;;;;;;;;;;343000;28;958;-79
2024/02/06 00:54:55;;;;;;;;;;;;;;;;;;344184;28;1344;-79
2024/02/06 00:55:05;;;;;;;;;;;;;;;;;;341599;28;1205;-80
2024/02/06 00:55:16;;;;;;;;;;;;;;;;;;342892;28;1332;-80
2024/02/06 00:55:26;;;;;;;;;;;;;;;;;;342975;28;1348;-79
2024/02/06 00:55:36;;;;;;;;;;;;;;;;;;343485;28;1056;-79
2024/02/06 00:55:46;;;;;;;;;;;;;;;;;;342987;28;1037;-79
2024/02/06 00:55:56;;;;;;;;;;;;;;;;;;342955;28;1076;-79
2024/02/06 00:56:07;;;;;;;;;;;;;;;;;;343040;28;1030;-79
2024/02/06 00:56:18;;;;;;;;;;;;;;;;;;344301;28;993;-79
2024/02/06 00:56:28;;;;;;;;;;;;;;;;;;344323;28;991;-79
2024/02/06 00:56:39;;;;;;;;;;;;;;;;;;344304;28;977;-79
2024/02/06 00:56:49;;;;;;;;;;;;;;;;;;344437;28;899;-79
2024/02/06 00:56:59;;;;;;;;;;;;;;;;;;343003;28;1006;-79
2024/02/06 00:57:10;;;;;;;;;;;;;;;;;;342988;28;998;-79
2024/02/06 00:57:20;;;;;;;;;;;;;;;;;;341678;29;990;-79
2024/02/06 00:57:30;;;;;;;;;;;;;;;;;;342789;28;1452;-80
2024/02/06 00:57:40;;;;;;;;;;;;;;;;;;342991;28;990;-79
2024/02/06 00:57:51;;;;;;;;;;;;;;;;;;343030;28;922;-79
2024/02/06 00:58:01;;;;;;;;;;;;;;;;;;342936;28;991;-79
2024/02/06 00:58:11;;;;;;;;;;;;;;;;;;343020;28;1026;-79
2024/02/06 00:58:21;;;;;;;;;;;;;;;;;;341466;29;1351;-79
2024/02/06 00:58:34;;;;;;;;;;;;;;;;;;341082;29;1753;-80
2024/02/06 00:58:45;;;;;;;;;;;;;;;;;;342240;28;1069;-79
2024/02/06 00:58:55;;;;;;;;;;;;;;;;;;342092;28;951;-80
2024/02/06 00:59:05;;;;;;;;;;;;;;;;;;342940;28;971;-79
2024/02/06 00:59:15;;;;;;;;;;;;;;;;;;341656;29;1014;-79
2024/02/06 00:59:27;;;;;;;;;;;;;;;;;;341536;29;1189;-79
2024/02/06 00:59:38;;;;;;;;;;;;;;;;;;341670;29;1030;-80
2024/02/06 00:59:49;;;;;;;;;;;;;;;;;;341658;29;939;-80
2024/02/06 00:59:59;;;;;;;;;;;;;;;;;;341618;29;1173;-79
2024/02/06 01:00:10;;;;;;;;;;;;;;;;;;341593;29;1256;-79
2024/02/06 01:00:20;;;;;;;;;;;;;;;;;;341658;29;1068;-80
2024/02/06 01:00:30;;;;;;;;;;;;;;;;;;340193;29;1014;-80
2024/02/06 01:00:40;;;;;;;;;;;;;;;;;;340378;29;982;-80
2024/02/06 01:00:51;;;;;;;;;;;;;;;;;;340282;29;958;-80
2024/02/06 01:01:01;;;;;;;;;;;;;;;;;;340347;29;1057;-80
2024/02/06 01:01:11;;;;;;;;;;;;;;;;;;342847;28;1302;-79
2024/02/06 01:01:21;;;;;;;;;;;;;;;;;;341532;28;1293;-80
2024/02/06 01:01:31;;;;;;;;;;;;;;;;;;341499;29;1438;-80
2024/02/06 01:01:42;;;;;;;;;;;;;;;;;;340309;29;967;-79
2024/02/06 01:01:52;;;;;;;;;;;;;;;;;;340257;29;1046;-79
2024/02/06 01:02:02;;;;;;;;;;;;;;;;;;341625;28;955;-79
2024/02/06 01:02:12;;;;;;;;;;;;;;;;;;341502;29;1294;-79
2024/02/06 01:02:23;;;;;;;;;;;;;;;;;;341700;29;978;-80
2024/02/06 01:02:34;;;;;;;;;;;;;;;;;;342905;28;1297;-79
2024/02/06 01:02:45;;;;;;;;;;;;;;;;;;342824;28;1073;-79
2024/02/06 01:02:55;;;;;;;;;;;;;;;;;;342953;28;1054;-79
2024/02/06 01:03:05;;;;;;;;;;;;;;;;;;343047;28;1005;-79
2024/02/06 01:03:15;;;;;;;;;;;;;;;;;;342919;28;970;-79
2024/02/06 01:03:26;;;;;;;;;;;;;;;;;;344181;28;1260;-79
2024/02/06 01:03:36;;;;;;;;;;;;;;;;;;342794;28;1213;-79
2024/02/06 01:03:46;;;;;;;;;;;;;;;;;;342806;28;1025;-80
2024/02/06 01:03:56;;;;;;;;;;;;;;;;;;343004;28;970;-80
2024/02/06 01:04:06;;;;;;;;;;;;;;;;;;343043;28;788;-80
2024/02/06 01:04:18;;;;;;;;;;;;;;;;;;344264;28;1021;-80
2024/02/06 01:04:28;;;;;;;;;;;;;;;;;;342983;28;970;-80
2024/02/06 01:04:38;;;;;;;;;;;;;;;;;;341645;29;1034;-80
2024/02/06 01:04:48;;;;;;;;;;;;;;;;;;340315;29;1351;-80
2024/02/06 01:04:59;;;;;;;;;;;;;;;;;;343001;28;951;-79
2024/02/06 01:05:09;;;;;;;;;;;;;;;;;;343019;28;835;-79
2024/02/06 01:05:20;;;;;;;;;;;;;;;;;;340881;28;1010;-79
2024/02/06 01:05:30;;;;;;;;;;;;;;;;;;341543;28;1362;-79
2024/02/06 01:05:40;;;;;;;;;;;;;;;;;;344263;28;1308;-80
2024/02/06 01:05:50;;;;;;;;;;;;;;;;;;342970;28;1176;-80
2024/02/06 01:06:01;;;;;;;;;;;;;;;;;;344253;28;1201;-79
2024/02/06 01:06:11;;;;;;;;;;;;;;;;;;344277;28;962;-79
2024/02/06 01:06:22;;;;;;;;;;;;;;;;;;342848;28;1017;-80
2024/02/06 01:06:32;;;;;;;;;;;;;;;;;;342887;28;1237;-79
2024/02/06 01:06:42;;;;;;;;;;;;;;;;;;340085;29;1458;-80
2024/02/06 01:06:53;;;;;;;;;;;;;;;;;;338982;29;1160;-80
2024/02/06 01:07:03;;;;;;;;;;;;;;;;;;341493;29;1306;-80
2024/02/06 01:07:13;;;;;;;;;;;;;;;;;;341610;29;832;-79
2024/02/06 01:07:25;;;;;;;;;;;;;;;;;;340219;29;1964;-80
2024/02/06 01:07:35;;;;;;;;;;;;;;;;;;341646;29;1240;-80
2024/02/06 01:07:46;;;;;;;;;;;;;;;;;;342879;28;1181;-80
2024/02/06 01:07:57;;;;;;;;;;;;;;;;;;341689;29;1003;-80
2024/02/06 01:08:07;;;;;;;;;;;;;;;;;;342889;28;1304;-79
2024/02/06 01:08:19;;;;;;;;;;;;;;;;;;341618;29;1327;-79
2024/02/06 01:08:29;;;;;;;;;;;;;;;;;;341100;29;1791;-79
2024/02/06 01:08:39;;;;;;;;;;;;;;;;;;344124;28;950;-80
2024/02/06 01:08:50;;;;;;;;;;;;;;;;;;344336;28;1083;-79
2024/02/06 01:09:00;;;;;;;;;;;;;;;;;;344294;28;943;-80
2024/02/06 01:09:11;;;;;;;;;;;;;;;;;;342996;28;1507;-79
2024/02/06 01:09:21;;;;;;;;;;;;;;;;;;342940;28;1198;-79
2024/02/06 01:09:31;;;;;;;;;;;;;;;;;;341584;29;1290;-80
2024/02/06 01:09:41;;;;;;;;;;;;;;;;;;340228;28;1324;-79
2024/02/06 01:09:52;;;;;;;;;;;;;;;;;;342946;28;1006;-80
2024/02/06 01:10:02;;;;;;;;;;;;;;;;;;341703;29;1018;-79
2024/02/06 01:10:12;;;;;;;;;;;;;;;;;;341610;29;856;-79
2024/02/06 01:10:22;;;;;;;;;;;;;;;;;;341673;29;927;-80
2024/02/06 01:10:33;;;;;;;;;;;;;;;;;;341655;29;1057;-79
2024/02/06 01:10:43;;;;;;;;;;;;;;;;;;344246;28;1296;-80
2024/02/06 01:10:53;;;;;;;;;;;;;;;;;;342939;28;1459;-79
2024/02/06 01:11:03;;;;;;;;;;;;;;;;;;341592;29;1009;-79
2024/02/06 01:11:14;;;;;;;;;;;;;;;;;;341634;28;1025;-79
2024/02/06 01:11:24;;;;;;;;;;;;;;;;;;341596;29;851;-79
2024/02/06 01:11:34;;;;;;;;;;;;;;;;;;342902;28;931;-79
2024/02/06 01:11:44;;;;;;;;;;;;;;;;;;342720;28;1304;-80
2024/02/06 01:11:55;;;;;;;;;;;;;;;;;;342736;28;1228;-79
2024/02/06 01:12:05;;;;;;;;;;;;;;;;;;344302;28;954;-80
2024/02/06 01:12:15;;;;;;;;;;;;;;;;;;342857;28;1093;-80
2024/02/06 01:12:25;;;;;;;;;;;;;;;;;;342975;28;877;-80
2024/02/06 01:12:36;;;;;;;;;;;;;;;;;;342985;28;998;-79
2024/02/06 01:12:46;;;;;;;;;;;;;;;;;;341619;29;1088;-80
2024/02/06 01:12:56;;;;;;;;;;;;;;;;;;341721;29;990;-80
2024/02/06 01:13:06;;;;;;;;;;;;;;;;;;341678;29;943;-80
2024/02/06 01:13:16;;;;;;;;;;;;;;;;;;342958;28;1014;-79
2024/02/06 01:13:27;;;;;;;;;;;;;;;;;;343313;28;1186;-80
2024/02/06 01:13:37;;;;;;;;;;;;;;;;;;342966;28;812;-79
2024/02/06 01:13:47;;;;;;;;;;;;;;;;;;342862;28;1300;-79
2024/02/06 01:13:57;;;;;;;;;;;;;;;;;;341529;29;1387;-79
2024/02/06 01:14:07;;;;;;;;;;;;;;;;;;341557;29;990;-79